Hitchcock, South Dakota
Current Conditions -  °F | °C
As of 1:55 PM on Saturday 25 Oct 2014 (Local Time) from KHON Reporting Station
Clear Clear  
Wind Chill: 66°   Ceiling: Unl
Heat Index: 66°   Visibility: 10mi
Dew Point: 28°   Wind: 5mph
Humidity: 24%   Direction: NA
Pressure: 30.13"   Gusts: NA
Location:  44.63°N, 98.41°W
Report Text: KHON 251855Z AUTO VRB04KT 10SM CLR 19/M02 A3013 RMK AO2 SLP203 T01891022
Loading
Personal Weather Stations






























Interactive Weather Map
Tropical Storm Tracking
New forecast layout! Learn more

10-Day Weather Forecast

Advertisements
Track Severe Weather on mobile